sensor_id;sensor_type;location;lat;lon;timestamp;P1;durP1;ratioP1;P2;durP2;ratioP2
26600;SDS011;14241;49.260;10.496;2023-10-19T00:01:13;16.55;;;14.77;;
26600;SDS011;14241;49.260;10.496;2023-10-19T00:03:40;18.70;;;15.43;;
26600;SDS011;14241;49.260;10.496;2023-10-19T00:06:05;17.40;;;15.63;;
26600;SDS011;14241;49.260;10.496;2023-10-19T00:08:30;20.43;;;17.13;;
26600;SDS011;14241;49.260;10.496;2023-10-19T00:11:06;20.30;;;17.13;;
26600;SDS011;14241;49.260;10.496;2023-10-19T00:13:35;20.13;;;16.73;;
26600;SDS011;14241;49.260;10.496;2023-10-19T00:16:01;18.58;;;16.27;;
26600;SDS011;14241;49.260;10.496;2023-10-19T00:18:26;17.42;;;15.68;;
26600;SDS011;14241;49.260;10.496;2023-10-19T00:20:53;17.98;;;16.00;;
26600;SDS011;14241;49.260;10.496;2023-10-19T00:23:20;18.48;;;15.73;;
26600;SDS011;14241;49.260;10.496;2023-10-19T00:26:00;17.48;;;15.40;;
26600;SDS011;14241;49.260;10.496;2023-10-19T00:28:30;18.38;;;16.38;;
26600;SDS011;14241;49.260;10.496;2023-10-19T00:30:56;18.77;;;16.60;;
26600;SDS011;14241;49.260;10.496;2023-10-19T00:33:28;18.85;;;16.17;;
26600;SDS011;14241;49.260;10.496;2023-10-19T00:35:54;18.43;;;16.47;;
26600;SDS011;14241;49.260;10.496;2023-10-19T00:38:25;18.13;;;16.23;;
26600;SDS011;14241;49.260;10.496;2023-10-19T00:41:13;19.08;;;16.90;;
26600;SDS011;14241;49.260;10.496;2023-10-19T00:43:44;19.05;;;17.02;;
26600;SDS011;14241;49.260;10.496;2023-10-19T00:46:13;20.00;;;17.35;;
26600;SDS011;14241;49.260;10.496;2023-10-19T00:48:45;20.15;;;18.05;;
26600;SDS011;14241;49.260;10.496;2023-10-19T00:51:11;20.52;;;18.10;;
26600;SDS011;14241;49.260;10.496;2023-10-19T00:54:04;22.45;;;18.25;;
26600;SDS011;14241;49.260;10.496;2023-10-19T00:56:33;20.20;;;17.85;;
26600;SDS011;14241;49.260;10.496;2023-10-19T00:58:59;20.15;;;18.05;;
26600;SDS011;14241;49.260;10.496;2023-10-19T01:01:28;18.58;;;16.65;;
26600;SDS011;14241;49.260;10.496;2023-10-19T01:03:53;20.80;;;18.58;;
26600;SDS011;14241;49.260;10.496;2023-10-19T01:06:21;19.50;;;17.50;;
26600;SDS011;14241;49.260;10.496;2023-10-19T01:08:47;19.73;;;17.60;;
26600;SDS011;14241;49.260;10.496;2023-10-19T01:11:12;20.05;;;17.88;;
26600;SDS011;14241;49.260;10.496;2023-10-19T01:13:40;23.67;;;17.83;;
26600;SDS011;14241;49.260;10.496;2023-10-19T01:16:11;20.40;;;17.98;;
26600;SDS011;14241;49.260;10.496;2023-10-19T01:18:40;20.80;;;17.83;;
26600;SDS011;14241;49.260;10.496;2023-10-19T01:21:08;23.63;;;18.20;;
26600;SDS011;14241;49.260;10.496;2023-10-19T01:23:33;20.70;;;18.50;;
26600;SDS011;14241;49.260;10.496;2023-10-19T01:26:00;20.88;;;18.67;;
26600;SDS011;14241;49.260;10.496;2023-10-19T01:28:29;23.48;;;18.48;;
26600;SDS011;14241;49.260;10.496;2023-10-19T01:31:17;23.60;;;18.10;;
26600;SDS011;14241;49.260;10.496;2023-10-19T01:33:55;21.95;;;18.55;;
26600;SDS011;14241;49.260;10.496;2023-10-19T01:36:21;20.20;;;18.13;;
26600;SDS011;14241;49.260;10.496;2023-10-19T01:38:50;24.58;;;19.05;;
26600;SDS011;14241;49.260;10.496;2023-10-19T01:41:18;21.77;;;18.90;;
26600;SDS011;14241;49.260;10.496;2023-10-19T01:43:44;21.75;;;19.15;;
26600;SDS011;14241;49.260;10.496;2023-10-19T01:46:10;23.77;;;18.90;;
26600;SDS011;14241;49.260;10.496;2023-10-19T01:48:39;23.73;;;19.00;;
26600;SDS011;14241;49.260;10.496;2023-10-19T01:51:06;20.83;;;18.38;;
26600;SDS011;14241;49.260;10.496;2023-10-19T01:53:31;21.67;;;19.42;;
26600;SDS011;14241;49.260;10.496;2023-10-19T01:55:57;22.10;;;19.80;;
26600;SDS011;14241;49.260;10.496;2023-10-19T01:58:26;25.17;;;21.10;;
26600;SDS011;14241;49.260;10.496;2023-10-19T02:00:54;21.67;;;19.45;;
26600;SDS011;14241;49.260;10.496;2023-10-19T02:03:21;22.02;;;19.02;;
26600;SDS011;14241;49.260;10.496;2023-10-19T02:05:48;23.38;;;20.63;;
26600;SDS011;14241;49.260;10.496;2023-10-19T02:08:17;21.08;;;18.98;;
26600;SDS011;14241;49.260;10.496;2023-10-19T02:10:46;22.37;;;19.67;;
26600;SDS011;14241;49.260;10.496;2023-10-19T02:13:12;24.38;;;20.65;;
26600;SDS011;14241;49.260;10.496;2023-10-19T02:15:40;25.75;;;21.38;;
26600;SDS011;14241;49.260;10.496;2023-10-19T02:18:07;23.65;;;20.85;;
26600;SDS011;14241;49.260;10.496;2023-10-19T02:20:33;22.80;;;20.40;;
26600;SDS011;14241;49.260;10.496;2023-10-19T02:22:59;23.45;;;20.90;;
26600;SDS011;14241;49.260;10.496;2023-10-19T02:25:28;24.73;;;21.95;;
26600;SDS011;14241;49.260;10.496;2023-10-19T02:27:55;24.40;;;21.20;;
26600;SDS011;14241;49.260;10.496;2023-10-19T02:30:20;24.08;;;21.15;;
26600;SDS011;14241;49.260;10.496;2023-10-19T02:32:46;25.30;;;21.80;;
26600;SDS011;14241;49.260;10.496;2023-10-19T02:35:12;26.50;;;22.73;;
26600;SDS011;14241;49.260;10.496;2023-10-19T02:37:38;26.35;;;22.63;;
26600;SDS011;14241;49.260;10.496;2023-10-19T02:40:04;25.13;;;22.42;;
26600;SDS011;14241;49.260;10.496;2023-10-19T02:42:37;29.88;;;22.10;;
26600;SDS011;14241;49.260;10.496;2023-10-19T02:45:03;26.58;;;23.67;;
26600;SDS011;14241;49.260;10.496;2023-10-19T02:47:30;24.73;;;22.10;;
26600;SDS011;14241;49.260;10.496;2023-10-19T02:49:55;25.13;;;21.30;;
26600;SDS011;14241;49.260;10.496;2023-10-19T02:52:20;25.33;;;22.65;;
26600;SDS011;14241;49.260;10.496;2023-10-19T02:54:47;26.67;;;23.65;;
26600;SDS011;14241;49.260;10.496;2023-10-19T02:57:12;26.95;;;24.02;;
26600;SDS011;14241;49.260;10.496;2023-10-19T02:59:38;27.05;;;24.13;;
26600;SDS011;14241;49.260;10.496;2023-10-19T03:02:04;25.55;;;22.73;;
26600;SDS011;14241;49.260;10.496;2023-10-19T03:04:40;26.23;;;23.27;;
26600;SDS011;14241;49.260;10.496;2023-10-19T03:07:07;29.17;;;24.70;;
26600;SDS011;14241;49.260;10.496;2023-10-19T03:09:32;28.80;;;23.38;;
26600;SDS011;14241;49.260;10.496;2023-10-19T03:12:01;28.33;;;24.88;;
26600;SDS011;14241;49.260;10.496;2023-10-19T03:14:30;27.85;;;24.15;;
26600;SDS011;14241;49.260;10.496;2023-10-19T03:16:56;30.33;;;25.17;;
26600;SDS011;14241;49.260;10.496;2023-10-19T03:19:22;27.92;;;25.00;;
26600;SDS011;14241;49.260;10.496;2023-10-19T03:21:49;27.85;;;23.77;;
26600;SDS011;14241;49.260;10.496;2023-10-19T03:24:15;29.45;;;24.02;;
26600;SDS011;14241;49.260;10.496;2023-10-19T03:26:51;27.55;;;24.25;;
26600;SDS011;14241;49.260;10.496;2023-10-19T03:29:16;31.60;;;25.55;;
26600;SDS011;14241;49.260;10.496;2023-10-19T03:31:51;26.88;;;23.95;;
26600;SDS011;14241;49.260;10.496;2023-10-19T03:34:17;28.55;;;25.13;;
26600;SDS011;14241;49.260;10.496;2023-10-19T03:36:42;30.67;;;25.05;;
26600;SDS011;14241;49.260;10.496;2023-10-19T03:39:07;32.70;;;26.77;;
26600;SDS011;14241;49.260;10.496;2023-10-19T03:41:43;32.05;;;27.13;;
26600;SDS011;14241;49.260;10.496;2023-10-19T03:44:12;30.88;;;25.48;;
26600;SDS011;14241;49.260;10.496;2023-10-19T03:47:00;29.67;;;25.52;;
26600;SDS011;14241;49.260;10.496;2023-10-19T03:49:52;29.40;;;25.85;;
26600;SDS011;14241;49.260;10.496;2023-10-19T03:52:18;31.98;;;27.35;;
26600;SDS011;14241;49.260;10.496;2023-10-19T03:54:43;29.70;;;26.47;;
26600;SDS011;14241;49.260;10.496;2023-10-19T03:57:12;29.13;;;22.95;;
26600;SDS011;14241;49.260;10.496;2023-10-19T03:59:38;30.98;;;25.17;;
26600;SDS011;14241;49.260;10.496;2023-10-19T04:02:03;33.33;;;26.20;;
26600;SDS011;14241;49.260;10.496;2023-10-19T04:04:39;33.42;;;26.95;;
26600;SDS011;14241;49.260;10.496;2023-10-19T04:07:08;30.02;;;26.73;;
26600;SDS011;14241;49.260;10.496;2023-10-19T04:09:43;32.53;;;26.50;;
26600;SDS011;14241;49.260;10.496;2023-10-19T04:12:24;32.90;;;27.23;;
26600;SDS011;14241;49.260;10.496;2023-10-19T04:14:49;31.77;;;26.58;;
26600;SDS011;14241;49.260;10.496;2023-10-19T04:17:14;31.90;;;27.85;;
26600;SDS011;14241;49.260;10.496;2023-10-19T04:19:40;31.38;;;28.13;;
26600;SDS011;14241;49.260;10.496;2023-10-19T04:22:05;32.40;;;28.83;;
26600;SDS011;14241;49.260;10.496;2023-10-19T04:24:30;33.53;;;28.53;;
26600;SDS011;14241;49.260;10.496;2023-10-19T04:26:58;28.90;;;25.70;;
26600;SDS011;14241;49.260;10.496;2023-10-19T04:29:24;30.10;;;26.80;;
26600;SDS011;14241;49.260;10.496;2023-10-19T04:31:52;28.95;;;25.77;;
26600;SDS011;14241;49.260;10.496;2023-10-19T04:34:21;31.45;;;27.95;;
26600;SDS011;14241;49.260;10.496;2023-10-19T04:36:50;30.88;;;26.55;;
26600;SDS011;14241;49.260;10.496;2023-10-19T04:39:15;31.98;;;26.80;;
26600;SDS011;14241;49.260;10.496;2023-10-19T04:41:41;30.92;;;26.20;;
26600;SDS011;14241;49.260;10.496;2023-10-19T04:44:07;31.85;;;26.33;;
26600;SDS011;14241;49.260;10.496;2023-10-19T04:46:34;32.85;;;27.15;;
26600;SDS011;14241;49.260;10.496;2023-10-19T04:49:00;30.97;;;26.50;;
26600;SDS011;14241;49.260;10.496;2023-10-19T04:51:25;29.35;;;25.45;;
26600;SDS011;14241;49.260;10.496;2023-10-19T04:53:50;30.23;;;26.02;;
26600;SDS011;14241;49.260;10.496;2023-10-19T04:56:16;30.83;;;26.23;;
26600;SDS011;14241;49.260;10.496;2023-10-19T04:58:41;30.20;;;26.23;;
26600;SDS011;14241;49.260;10.496;2023-10-19T05:01:06;32.35;;;27.10;;
26600;SDS011;14241;49.260;10.496;2023-10-19T05:03:32;30.42;;;26.08;;
26600;SDS011;14241;49.260;10.496;2023-10-19T05:05:57;31.15;;;25.98;;
26600;SDS011;14241;49.260;10.496;2023-10-19T05:08:23;29.63;;;25.25;;
26600;SDS011;14241;49.260;10.496;2023-10-19T05:10:52;27.48;;;24.58;;
26600;SDS011;14241;49.260;10.496;2023-10-19T05:13:19;30.80;;;26.73;;
26600;SDS011;14241;49.260;10.496;2023-10-19T05:15:44;28.35;;;24.95;;
26600;SDS011;14241;49.260;10.496;2023-10-19T05:18:09;29.67;;;25.20;;
26600;SDS011;14241;49.260;10.496;2023-10-19T05:20:35;30.23;;;25.88;;
26600;SDS011;14241;49.260;10.496;2023-10-19T05:23:05;34.13;;;29.77;;
26600;SDS011;14241;49.260;10.496;2023-10-19T05:25:30;33.63;;;28.10;;
26600;SDS011;14241;49.260;10.496;2023-10-19T05:27:55;31.07;;;26.63;;
26600;SDS011;14241;49.260;10.496;2023-10-19T05:30:21;29.73;;;26.57;;
26600;SDS011;14241;49.260;10.496;2023-10-19T05:32:47;30.77;;;27.38;;
26600;SDS011;14241;49.260;10.496;2023-10-19T05:35:14;32.85;;;28.58;;
26600;SDS011;14241;49.260;10.496;2023-10-19T05:37:47;32.38;;;27.75;;
26600;SDS011;14241;49.260;10.496;2023-10-19T05:40:14;28.92;;;25.90;;
26600;SDS011;14241;49.260;10.496;2023-10-19T05:42:40;30.70;;;26.63;;
26600;SDS011;14241;49.260;10.496;2023-10-19T05:45:05;31.38;;;25.98;;
26600;SDS011;14241;49.260;10.496;2023-10-19T05:47:30;28.98;;;25.20;;
26600;SDS011;14241;49.260;10.496;2023-10-19T05:49:56;30.92;;;25.83;;
26600;SDS011;14241;49.260;10.496;2023-10-19T05:52:21;31.20;;;26.97;;
26600;SDS011;14241;49.260;10.496;2023-10-19T05:54:47;30.73;;;25.80;;
26600;SDS011;14241;49.260;10.496;2023-10-19T05:57:14;27.60;;;24.45;;
26600;SDS011;14241;49.260;10.496;2023-10-19T05:59:39;28.77;;;25.67;;
26600;SDS011;14241;49.260;10.496;2023-10-19T06:02:05;28.83;;;25.52;;
26600;SDS011;14241;49.260;10.496;2023-10-19T06:04:32;31.30;;;28.02;;
26600;SDS011;14241;49.260;10.496;2023-10-19T06:06:57;31.67;;;26.98;;
26600;SDS011;14241;49.260;10.496;2023-10-19T06:09:22;31.23;;;26.80;;
26600;SDS011;14241;49.260;10.496;2023-10-19T06:11:54;29.63;;;25.85;;
26600;SDS011;14241;49.260;10.496;2023-10-19T06:14:19;31.80;;;27.80;;
26600;SDS011;14241;49.260;10.496;2023-10-19T06:16:44;34.00;;;29.10;;
26600;SDS011;14241;49.260;10.496;2023-10-19T06:19:09;29.13;;;26.13;;
26600;SDS011;14241;49.260;10.496;2023-10-19T06:21:35;35.13;;;29.30;;
26600;SDS011;14241;49.260;10.496;2023-10-19T06:24:00;33.83;;;28.53;;
26600;SDS011;14241;49.260;10.496;2023-10-19T06:26:25;35.30;;;29.33;;
26600;SDS011;14241;49.260;10.496;2023-10-19T06:28:50;31.87;;;28.00;;
26600;SDS011;14241;49.260;10.496;2023-10-19T06:31:16;32.05;;;28.75;;
26600;SDS011;14241;49.260;10.496;2023-10-19T06:33:41;34.97;;;29.83;;
26600;SDS011;14241;49.260;10.496;2023-10-19T06:36:06;31.63;;;28.33;;
26600;SDS011;14241;49.260;10.496;2023-10-19T06:38:31;32.85;;;29.35;;
26600;SDS011;14241;49.260;10.496;2023-10-19T06:40:57;33.67;;;29.20;;
26600;SDS011;14241;49.260;10.496;2023-10-19T06:43:22;36.88;;;31.00;;
26600;SDS011;14241;49.260;10.496;2023-10-19T06:45:52;33.97;;;30.27;;
26600;SDS011;14241;49.260;10.496;2023-10-19T06:48:20;32.10;;;28.73;;
26600;SDS011;14241;49.260;10.496;2023-10-19T06:50:45;34.70;;;28.50;;
26600;SDS011;14241;49.260;10.496;2023-10-19T06:53:11;34.87;;;30.23;;
26600;SDS011;14241;49.260;10.496;2023-10-19T06:55:36;34.17;;;29.80;;
26600;SDS011;14241;49.260;10.496;2023-10-19T06:58:01;32.33;;;28.87;;
26600;SDS011;14241;49.260;10.496;2023-10-19T07:00:27;32.97;;;29.40;;
26600;SDS011;14241;49.260;10.496;2023-10-19T07:02:53;32.03;;;28.63;;
26600;SDS011;14241;49.260;10.496;2023-10-19T07:05:20;31.92;;;28.15;;
26600;SDS011;14241;49.260;10.496;2023-10-19T07:07:49;29.95;;;26.75;;
26600;SDS011;14241;49.260;10.496;2023-10-19T07:10:16;30.45;;;27.20;;
26600;SDS011;14241;49.260;10.496;2023-10-19T07:12:43;29.08;;;26.00;;
26600;SDS011;14241;49.260;10.496;2023-10-19T07:15:09;30.90;;;26.48;;
26600;SDS011;14241;49.260;10.496;2023-10-19T07:17:39;27.38;;;24.30;;
26600;SDS011;14241;49.260;10.496;2023-10-19T07:20:05;32.13;;;25.35;;
26600;SDS011;14241;49.260;10.496;2023-10-19T07:22:31;27.15;;;23.92;;
26600;SDS011;14241;49.260;10.496;2023-10-19T07:24:56;28.75;;;24.90;;
26600;SDS011;14241;49.260;10.496;2023-10-19T07:27:22;29.60;;;26.40;;
26600;SDS011;14241;49.260;10.496;2023-10-19T07:29:48;27.67;;;24.67;;
26600;SDS011;14241;49.260;10.496;2023-10-19T07:32:13;27.67;;;24.30;;
26600;SDS011;14241;49.260;10.496;2023-10-19T07:34:39;26.88;;;24.00;;
26600;SDS011;14241;49.260;10.496;2023-10-19T07:37:04;28.75;;;23.92;;
26600;SDS011;14241;49.260;10.496;2023-10-19T07:39:29;26.23;;;23.20;;
26600;SDS011;14241;49.260;10.496;2023-10-19T07:41:58;26.08;;;23.15;;
26600;SDS011;14241;49.260;10.496;2023-10-19T07:44:23;27.80;;;24.38;;
26600;SDS011;14241;49.260;10.496;2023-10-19T07:46:48;28.40;;;24.45;;
26600;SDS011;14241;49.260;10.496;2023-10-19T07:49:14;27.38;;;24.45;;
26600;SDS011;14241;49.260;10.496;2023-10-19T07:51:40;27.77;;;23.85;;
26600;SDS011;14241;49.260;10.496;2023-10-19T07:54:06;27.92;;;24.92;;
26600;SDS011;14241;49.260;10.496;2023-10-19T07:56:32;26.52;;;23.73;;
26600;SDS011;14241;49.260;10.496;2023-10-19T07:58:59;26.48;;;23.70;;
26600;SDS011;14241;49.260;10.496;2023-10-19T08:01:24;27.13;;;23.17;;
26600;SDS011;14241;49.260;10.496;2023-10-19T08:03:49;28.60;;;23.83;;
26600;SDS011;14241;49.260;10.496;2023-10-19T08:06:14;40.92;;;32.35;;
26600;SDS011;14241;49.260;10.496;2023-10-19T08:08:40;48.97;;;38.50;;
26600;SDS011;14241;49.260;10.496;2023-10-19T08:11:07;32.00;;;27.02;;
26600;SDS011;14241;49.260;10.496;2023-10-19T08:13:33;26.10;;;23.35;;
26600;SDS011;14241;49.260;10.496;2023-10-19T08:15:58;26.47;;;23.70;;
26600;SDS011;14241;49.260;10.496;2023-10-19T08:18:23;27.43;;;24.47;;
26600;SDS011;14241;49.260;10.496;2023-10-19T08:20:49;25.77;;;23.10;;
26600;SDS011;14241;49.260;10.496;2023-10-19T08:23:15;28.05;;;25.05;;
26600;SDS011;14241;49.260;10.496;2023-10-19T08:25:43;24.33;;;21.75;;
26600;SDS011;14241;49.260;10.496;2023-10-19T08:28:09;31.88;;;23.88;;
26600;SDS011;14241;49.260;10.496;2023-10-19T08:30:36;31.08;;;24.27;;
26600;SDS011;14241;49.260;10.496;2023-10-19T08:33:02;25.27;;;22.55;;
26600;SDS011;14241;49.260;10.496;2023-10-19T08:35:27;26.02;;;23.08;;
26600;SDS011;14241;49.260;10.496;2023-10-19T08:37:53;27.67;;;22.77;;
26600;SDS011;14241;49.260;10.496;2023-10-19T08:40:19;24.67;;;22.13;;
26600;SDS011;14241;49.260;10.496;2023-10-19T08:42:44;25.70;;;21.95;;
26600;SDS011;14241;49.260;10.496;2023-10-19T08:45:13;24.40;;;21.77;;
26600;SDS011;14241;49.260;10.496;2023-10-19T08:50:13;24.90;;;21.75;;
26600;SDS011;14241;49.260;10.496;2023-10-19T08:52:39;26.90;;;22.27;;
26600;SDS011;14241;49.260;10.496;2023-10-19T08:55:06;25.48;;;22.80;;
26600;SDS011;14241;49.260;10.496;2023-10-19T08:57:31;25.80;;;23.08;;
26600;SDS011;14241;49.260;10.496;2023-10-19T08:59:56;26.33;;;22.20;;
26600;SDS011;14241;49.260;10.496;2023-10-19T09:02:23;26.80;;;22.83;;
26600;SDS011;14241;49.260;10.496;2023-10-19T09:04:49;28.20;;;23.27;;
26600;SDS011;14241;49.260;10.496;2023-10-19T09:07:16;26.10;;;23.13;;
26600;SDS011;14241;49.260;10.496;2023-10-19T09:09:41;24.77;;;22.15;;
26600;SDS011;14241;49.260;10.496;2023-10-19T09:12:06;26.77;;;22.53;;
26600;SDS011;14241;49.260;10.496;2023-10-19T09:14:33;26.02;;;22.67;;
26600;SDS011;14241;49.260;10.496;2023-10-19T09:17:01;25.80;;;22.02;;
26600;SDS011;14241;49.260;10.496;2023-10-19T09:19:38;27.05;;;21.58;;
26600;SDS011;14241;49.260;10.496;2023-10-19T09:22:04;26.20;;;23.30;;
26600;SDS011;14241;49.260;10.496;2023-10-19T09:24:34;22.42;;;20.05;;
26600;SDS011;14241;49.260;10.496;2023-10-19T09:26:59;25.65;;;21.98;;
26600;SDS011;14241;49.260;10.496;2023-10-19T09:29:24;27.23;;;23.03;;
26600;SDS011;14241;49.260;10.496;2023-10-19T09:31:50;24.70;;;22.10;;
26600;SDS011;14241;49.260;10.496;2023-10-19T09:34:16;26.90;;;21.75;;
26600;SDS011;14241;49.260;10.496;2023-10-19T09:36:42;23.77;;;20.70;;
26600;SDS011;14241;49.260;10.496;2023-10-19T09:39:08;24.75;;;21.17;;
26600;SDS011;14241;49.260;10.496;2023-10-19T09:41:37;24.27;;;21.67;;
26600;SDS011;14241;49.260;10.496;2023-10-19T09:44:03;23.30;;;20.85;;
26600;SDS011;14241;49.260;10.496;2023-10-19T09:46:32;26.58;;;20.45;;
26600;SDS011;14241;49.260;10.496;2023-10-19T09:48:57;23.00;;;20.45;;
26600;SDS011;14241;49.260;10.496;2023-10-19T09:51:23;22.85;;;19.63;;
26600;SDS011;14241;49.260;10.496;2023-10-19T09:53:53;23.25;;;20.05;;
26600;SDS011;14241;49.260;10.496;2023-10-19T09:56:24;23.75;;;20.05;;
26600;SDS011;14241;49.260;10.496;2023-10-19T09:58:53;23.35;;;20.23;;
26600;SDS011;14241;49.260;10.496;2023-10-19T10:01:18;23.90;;;20.60;;
26600;SDS011;14241;49.260;10.496;2023-10-19T10:07:01;23.58;;;20.48;;
26600;SDS011;14241;49.260;10.496;2023-10-19T10:09:01;23.75;;;20.48;;
26600;SDS011;14241;49.260;10.496;2023-10-19T10:11:28;24.23;;;21.27;;
26600;SDS011;14241;49.260;10.496;2023-10-19T10:13:57;22.03;;;19.37;;
26600;SDS011;14241;49.260;10.496;2023-10-19T10:16:24;23.33;;;18.70;;
26600;SDS011;14241;49.260;10.496;2023-10-19T10:18:50;26.95;;;22.52;;
26600;SDS011;14241;49.260;10.496;2023-10-19T10:21:22;28.42;;;23.42;;
26600;SDS011;14241;49.260;10.496;2023-10-19T10:26:18;25.38;;;20.80;;
26600;SDS011;14241;49.260;10.496;2023-10-19T10:28:48;47.13;;;31.63;;
26600;SDS011;14241;49.260;10.496;2023-10-19T10:33:43;22.90;;;18.85;;
26600;SDS011;14241;49.260;10.496;2023-10-19T10:36:12;20.55;;;16.08;;
26600;SDS011;14241;49.260;10.496;2023-10-19T10:38:37;19.77;;;16.25;;
26600;SDS011;14241;49.260;10.496;2023-10-19T10:41:02;20.70;;;17.37;;
26600;SDS011;14241;49.260;10.496;2023-10-19T10:43:28;20.08;;;16.38;;
26600;SDS011;14241;49.260;10.496;2023-10-19T10:46:06;17.85;;;15.95;;
26600;SDS011;14241;49.260;10.496;2023-10-19T10:48:32;17.75;;;15.85;;
26600;SDS011;14241;49.260;10.496;2023-10-19T10:50:57;19.70;;;15.05;;
26600;SDS011;14241;49.260;10.496;2023-10-19T10:53:23;19.00;;;14.77;;
26600;SDS011;14241;49.260;10.496;2023-10-19T10:55:50;18.60;;;15.25;;
26600;SDS011;14241;49.260;10.496;2023-10-19T10:58:15;16.55;;;14.38;;
26600;SDS011;14241;49.260;10.496;2023-10-19T11:00:44;16.75;;;14.95;;
26600;SDS011;14241;49.260;10.496;2023-10-19T11:03:11;20.92;;;14.98;;
26600;SDS011;14241;49.260;10.496;2023-10-19T11:05:37;17.05;;;15.23;;
26600;SDS011;14241;49.260;10.496;2023-10-19T11:10:28;18.20;;;15.27;;
26600;SDS011;14241;49.260;10.496;2023-10-19T11:13:00;17.92;;;15.25;;
26600;SDS011;14241;49.260;10.496;2023-10-19T11:15:26;17.88;;;14.70;;
26600;SDS011;14241;49.260;10.496;2023-10-19T11:17:51;19.02;;;15.07;;
26600;SDS011;14241;49.260;10.496;2023-10-19T11:20:23;18.30;;;14.23;;
26600;SDS011;14241;49.260;10.496;2023-10-19T11:22:49;16.70;;;14.98;;
26600;SDS011;14241;49.260;10.496;2023-10-19T11:25:18;17.10;;;15.27;;
26600;SDS011;14241;49.260;10.496;2023-10-19T11:27:43;17.20;;;14.90;;
26600;SDS011;14241;49.260;10.496;2023-10-19T11:30:08;17.27;;;15.37;;
26600;SDS011;14241;49.260;10.496;2023-10-19T11:32:37;17.05;;;14.63;;
26600;SDS011;14241;49.260;10.496;2023-10-19T11:35:06;16.85;;;14.93;;
26600;SDS011;14241;49.260;10.496;2023-10-19T11:37:54;16.20;;;14.07;;
26600;SDS011;14241;49.260;10.496;2023-10-19T11:40:20;17.50;;;15.27;;
26600;SDS011;14241;49.260;10.496;2023-10-19T11:42:45;17.08;;;13.93;;
26600;SDS011;14241;49.260;10.496;2023-10-19T11:45:10;17.40;;;14.27;;
26600;SDS011;14241;49.260;10.496;2023-10-19T11:47:37;19.60;;;15.00;;
26600;SDS011;14241;49.260;10.496;2023-10-19T11:50:02;16.92;;;14.65;;
26600;SDS011;14241;49.260;10.496;2023-10-19T11:52:27;18.45;;;15.38;;
26600;SDS011;14241;49.260;10.496;2023-10-19T11:54:54;18.23;;;14.55;;
26600;SDS011;14241;49.260;10.496;2023-10-19T11:57:19;17.40;;;14.77;;
26600;SDS011;14241;49.260;10.496;2023-10-19T11:59:44;17.03;;;14.07;;
26600;SDS011;14241;49.260;10.496;2023-10-19T12:02:10;17.23;;;15.00;;
26600;SDS011;14241;49.260;10.496;2023-10-19T12:04:36;17.10;;;13.95;;
26600;SDS011;14241;49.260;10.496;2023-10-19T12:07:02;17.63;;;13.43;;
26600;SDS011;14241;49.260;10.496;2023-10-19T12:09:28;15.98;;;14.30;;
26600;SDS011;14241;49.260;10.496;2023-10-19T12:11:53;16.08;;;14.38;;
26600;SDS011;14241;49.260;10.496;2023-10-19T12:14:19;14.50;;;13.00;;
26600;SDS011;14241;49.260;10.496;2023-10-19T12:16:46;16.58;;;13.82;;
26600;SDS011;14241;49.260;10.496;2023-10-19T12:19:11;14.80;;;13.25;;
26600;SDS011;14241;49.260;10.496;2023-10-19T12:21:36;20.87;;;14.20;;
26600;SDS011;14241;49.260;10.496;2023-10-19T12:24:06;18.20;;;14.32;;
26600;SDS011;14241;49.260;10.496;2023-10-19T12:26:32;15.32;;;13.82;;
26600;SDS011;14241;49.260;10.496;2023-10-19T12:28:57;16.30;;;14.13;;
26600;SDS011;14241;49.260;10.496;2023-10-19T12:31:23;17.75;;;13.57;;
26600;SDS011;14241;49.260;10.496;2023-10-19T12:33:48;16.35;;;12.75;;
26600;SDS011;14241;49.260;10.496;2023-10-19T12:36:13;15.53;;;13.93;;
26600;SDS011;14241;49.260;10.496;2023-10-19T12:38:53;15.63;;;13.32;;
26600;SDS011;14241;49.260;10.496;2023-10-19T12:41:20;16.98;;;14.02;;
26600;SDS011;14241;49.260;10.496;2023-10-19T12:43:45;17.55;;;13.70;;
26600;SDS011;14241;49.260;10.496;2023-10-19T12:46:17;16.30;;;13.98;;
26600;SDS011;14241;49.260;10.496;2023-10-19T12:48:44;16.67;;;14.15;;
26600;SDS011;14241;49.260;10.496;2023-10-19T12:51:09;15.50;;;12.57;;
26600;SDS011;14241;49.260;10.496;2023-10-19T12:53:36;15.23;;;13.63;;
26600;SDS011;14241;49.260;10.496;2023-10-19T12:56:03;14.63;;;13.07;;
26600;SDS011;14241;49.260;10.496;2023-10-19T12:58:28;15.23;;;13.63;;
26600;SDS011;14241;49.260;10.496;2023-10-19T13:00:54;14.32;;;12.82;;
26600;SDS011;14241;49.260;10.496;2023-10-19T13:03:21;16.55;;;13.98;;
26600;SDS011;14241;49.260;10.496;2023-10-19T13:05:47;17.95;;;14.13;;
26600;SDS011;14241;49.260;10.496;2023-10-19T13:08:14;18.95;;;13.57;;
26600;SDS011;14241;49.260;10.496;2023-10-19T13:10:40;17.02;;;13.93;;
26600;SDS011;14241;49.260;10.496;2023-10-19T13:13:07;16.58;;;14.25;;
26600;SDS011;14241;49.260;10.496;2023-10-19T13:15:36;16.33;;;14.63;;
26600;SDS011;14241;49.260;10.496;2023-10-19T13:18:03;17.67;;;14.52;;
26600;SDS011;14241;49.260;10.496;2023-10-19T13:20:28;17.48;;;14.90;;
26600;SDS011;14241;49.260;10.496;2023-10-19T13:22:59;17.67;;;15.80;;
26600;SDS011;14241;49.260;10.496;2023-10-19T13:25:24;18.60;;;15.15;;
26600;SDS011;14241;49.260;10.496;2023-10-19T13:28:08;19.02;;;15.00;;
26600;SDS011;14241;49.260;10.496;2023-10-19T13:30:37;17.98;;;15.32;;
26600;SDS011;14241;49.260;10.496;2023-10-19T13:33:03;19.35;;;15.48;;
26600;SDS011;14241;49.260;10.496;2023-10-19T13:35:29;17.58;;;15.80;;
26600;SDS011;14241;49.260;10.496;2023-10-19T13:37:55;16.65;;;14.82;;
26600;SDS011;14241;49.260;10.496;2023-10-19T13:40:21;17.92;;;14.65;;
26600;SDS011;14241;49.260;10.496;2023-10-19T13:42:46;17.37;;;15.50;;
26600;SDS011;14241;49.260;10.496;2023-10-19T13:45:12;20.08;;;16.70;;
26600;SDS011;14241;49.260;10.496;2023-10-19T13:47:39;17.95;;;16.05;;
26600;SDS011;14241;49.260;10.496;2023-10-19T13:50:05;19.63;;;16.40;;
26600;SDS011;14241;49.260;10.496;2023-10-19T13:52:32;17.20;;;15.32;;
26600;SDS011;14241;49.260;10.496;2023-10-19T13:54:57;17.77;;;15.83;;
26600;SDS011;14241;49.260;10.496;2023-10-19T13:57:22;17.97;;;16.03;;
26600;SDS011;14241;49.260;10.496;2023-10-19T13:59:47;18.43;;;16.50;;
26600;SDS011;14241;49.260;10.496;2023-10-19T14:02:14;20.08;;;16.77;;
26600;SDS011;14241;49.260;10.496;2023-10-19T14:04:39;23.60;;;17.27;;
26600;SDS011;14241;49.260;10.496;2023-10-19T14:07:04;19.53;;;17.53;;
26600;SDS011;14241;49.260;10.496;2023-10-19T14:09:29;17.07;;;15.27;;
26600;SDS011;14241;49.260;10.496;2023-10-19T14:11:56;20.35;;;17.20;;
26600;SDS011;14241;49.260;10.496;2023-10-19T14:14:22;24.33;;;16.65;;
26600;SDS011;14241;49.260;10.496;2023-10-19T14:16:47;18.00;;;16.00;;
26600;SDS011;14241;49.260;10.496;2023-10-19T14:19:15;18.67;;;15.90;;
26600;SDS011;14241;49.260;10.496;2023-10-19T14:21:40;19.17;;;15.83;;